sensor_id;sensor_type;location;lat;lon;timestamp;P1;durP1;ratioP1;P2;durP2;ratioP2
11761;SDS011;5938;47.098;15.474;2022-10-30T00:02:11;10.70;;;8.57;;
11761;SDS011;5938;47.098;15.474;2022-10-30T00:06:15;12.20;;;8.93;;
11761;SDS011;5938;47.098;15.474;2022-10-30T00:10:20;14.83;;;9.90;;
11761;SDS011;5938;47.098;15.474;2022-10-30T00:14:24;15.33;;;9.33;;
11761;SDS011;5938;47.098;15.474;2022-10-30T00:18:27;14.20;;;9.10;;
11761;SDS011;5938;47.098;15.474;2022-10-30T00:22:31;10.80;;;9.10;;
11761;SDS011;5938;47.098;15.474;2022-10-30T00:26:36;15.37;;;9.97;;
11761;SDS011;5938;47.098;15.474;2022-10-30T00:30:40;14.70;;;10.40;;
11761;SDS011;5938;47.098;15.474;2022-10-30T00:34:43;12.10;;;10.80;;
11761;SDS011;5938;47.098;15.474;2022-10-30T00:38:48;15.00;;;9.50;;
11761;SDS011;5938;47.098;15.474;2022-10-30T00:42:53;13.93;;;10.40;;
11761;SDS011;5938;47.098;15.474;2022-10-30T00:46:57;11.83;;;9.73;;
11761;SDS011;5938;47.098;15.474;2022-10-30T00:51:05;12.70;;;10.60;;
11761;SDS011;5938;47.098;15.474;2022-10-30T00:55:15;12.60;;;11.33;;
11761;SDS011;5938;47.098;15.474;2022-10-30T00:59:24;12.40;;;9.70;;
11761;SDS011;5938;47.098;15.474;2022-10-30T01:03:32;10.10;;;9.10;;
11761;SDS011;5938;47.098;15.474;2022-10-30T01:07:39;11.63;;;9.43;;
11761;SDS011;5938;47.098;15.474;2022-10-30T01:11:42;11.87;;;10.27;;
11761;SDS011;5938;47.098;15.474;2022-10-30T01:15:49;14.20;;;9.30;;
11761;SDS011;5938;47.098;15.474;2022-10-30T01:20:17;14.97;;;9.57;;
11761;SDS011;5938;47.098;15.474;2022-10-30T01:24:33;10.33;;;9.33;;
11761;SDS011;5938;47.098;15.474;2022-10-30T01:28:50;12.33;;;8.90;;
11761;SDS011;5938;47.098;15.474;2022-10-30T01:33:08;10.27;;;9.17;;
11761;SDS011;5938;47.098;15.474;2022-10-30T01:37:27;12.73;;;9.57;;
11761;SDS011;5938;47.098;15.474;2022-10-30T01:41:36;13.07;;;9.80;;
11761;SDS011;5938;47.098;15.474;2022-10-30T01:45:50;11.50;;;9.33;;
11761;SDS011;5938;47.098;15.474;2022-10-30T01:50:15;10.50;;;9.33;;
11761;SDS011;5938;47.098;15.474;2022-10-30T01:54:30;16.23;;;8.63;;
11761;SDS011;5938;47.098;15.474;2022-10-30T01:58:41;12.57;;;8.80;;
11761;SDS011;5938;47.098;15.474;2022-10-30T02:03:01;10.33;;;7.93;;
11761;SDS011;5938;47.098;15.474;2022-10-30T02:07:07;9.90;;;8.67;;
11761;SDS011;5938;47.098;15.474;2022-10-30T02:11:11;11.10;;;8.53;;
11761;SDS011;5938;47.098;15.474;2022-10-30T02:15:16;11.63;;;9.10;;
11761;SDS011;5938;47.098;15.474;2022-10-30T02:19:20;12.20;;;9.00;;
11761;SDS011;5938;47.098;15.474;2022-10-30T02:23:27;10.67;;;8.07;;
11761;SDS011;5938;47.098;15.474;2022-10-30T02:27:30;19.50;;;8.73;;
11761;SDS011;5938;47.098;15.474;2022-10-30T02:31:34;8.47;;;7.20;;
11761;SDS011;5938;47.098;15.474;2022-10-30T02:35:38;9.27;;;8.37;;
11761;SDS011;5938;47.098;15.474;2022-10-30T02:39:43;11.50;;;8.23;;
11761;SDS011;5938;47.098;15.474;2022-10-30T02:43:47;11.10;;;8.97;;
11761;SDS011;5938;47.098;15.474;2022-10-30T02:47:52;12.77;;;8.33;;
11761;SDS011;5938;47.098;15.474;2022-10-30T02:51:56;9.93;;;7.97;;
11761;SDS011;5938;47.098;15.474;2022-10-30T02:56:03;9.50;;;8.50;;
11761;SDS011;5938;47.098;15.474;2022-10-30T03:00:08;10.63;;;7.90;;
11761;SDS011;5938;47.098;15.474;2022-10-30T03:04:13;10.33;;;7.33;;
11761;SDS011;5938;47.098;15.474;2022-10-30T03:08:16;11.30;;;8.53;;
11761;SDS011;5938;47.098;15.474;2022-10-30T03:12:21;10.00;;;8.00;;
11761;SDS011;5938;47.098;15.474;2022-10-30T03:16:25;12.90;;;8.73;;
11761;SDS011;5938;47.098;15.474;2022-10-30T03:20:31;9.90;;;7.53;;
11761;SDS011;5938;47.098;15.474;2022-10-30T03:24:34;11.03;;;7.87;;
11761;SDS011;5938;47.098;15.474;2022-10-30T03:28:40;17.00;;;8.47;;
11761;SDS011;5938;47.098;15.474;2022-10-30T03:32:43;15.93;;;8.60;;
11761;SDS011;5938;47.098;15.474;2022-10-30T03:36:47;13.73;;;9.07;;
11761;SDS011;5938;47.098;15.474;2022-10-30T03:40:51;12.60;;;8.10;;
11761;SDS011;5938;47.098;15.474;2022-10-30T03:44:56;10.47;;;9.37;;
11761;SDS011;5938;47.098;15.474;2022-10-30T03:49:00;13.83;;;8.80;;
11761;SDS011;5938;47.098;15.474;2022-10-30T03:53:04;8.93;;;7.80;;
11761;SDS011;5938;47.098;15.474;2022-10-30T03:57:07;11.60;;;7.87;;
11761;SDS011;5938;47.098;15.474;2022-10-30T04:01:13;10.80;;;8.13;;
11761;SDS011;5938;47.098;15.474;2022-10-30T04:05:17;11.67;;;7.17;;
11761;SDS011;5938;47.098;15.474;2022-10-30T04:09:22;10.10;;;7.20;;
11761;SDS011;5938;47.098;15.474;2022-10-30T04:13:35;12.73;;;8.20;;
11761;SDS011;5938;47.098;15.474;2022-10-30T04:17:40;7.53;;;6.83;;
11761;SDS011;5938;47.098;15.474;2022-10-30T04:21:50;11.53;;;7.33;;
11761;SDS011;5938;47.098;15.474;2022-10-30T04:25:54;11.13;;;8.10;;
11761;SDS011;5938;47.098;15.474;2022-10-30T04:29:57;12.17;;;7.80;;
11761;SDS011;5938;47.098;15.474;2022-10-30T04:34:04;7.07;;;6.37;;
11761;SDS011;5938;47.098;15.474;2022-10-30T04:38:08;7.77;;;7.03;;
11761;SDS011;5938;47.098;15.474;2022-10-30T04:42:13;9.10;;;6.43;;
11761;SDS011;5938;47.098;15.474;2022-10-30T04:46:16;10.50;;;7.53;;
11761;SDS011;5938;47.098;15.474;2022-10-30T04:50:22;9.03;;;6.77;;
11761;SDS011;5938;47.098;15.474;2022-10-30T04:54:25;8.80;;;6.70;;
11761;SDS011;5938;47.098;15.474;2022-10-30T04:58:29;9.23;;;7.30;;
11761;SDS011;5938;47.098;15.474;2022-10-30T05:02:33;10.00;;;8.30;;
11761;SDS011;5938;47.098;15.474;2022-10-30T05:06:39;8.83;;;7.00;;
11761;SDS011;5938;47.098;15.474;2022-10-30T05:10:42;15.20;;;8.17;;
11761;SDS011;5938;47.098;15.474;2022-10-30T05:14:46;9.00;;;6.63;;
11761;SDS011;5938;47.098;15.474;2022-10-30T05:18:49;8.00;;;7.20;;
11761;SDS011;5938;47.098;15.474;2022-10-30T05:22:55;10.33;;;7.27;;
11761;SDS011;5938;47.098;15.474;2022-10-30T05:26:59;9.00;;;7.90;;
11761;SDS011;5938;47.098;15.474;2022-10-30T05:31:02;9.00;;;5.97;;
11761;SDS011;5938;47.098;15.474;2022-10-30T05:39:20;6.60;;;5.57;;
11761;SDS011;5938;47.098;15.474;2022-10-30T05:43:23;12.93;;;7.40;;
11761;SDS011;5938;47.098;15.474;2022-10-30T05:47:26;14.07;;;7.37;;
11761;SDS011;5938;47.098;15.474;2022-10-30T05:51:30;12.20;;;8.27;;
11761;SDS011;5938;47.098;15.474;2022-10-30T05:55:42;20.53;;;6.90;;
11761;SDS011;5938;47.098;15.474;2022-10-30T05:59:45;11.17;;;7.93;;
11761;SDS011;5938;47.098;15.474;2022-10-30T06:03:49;15.03;;;8.63;;
11761;SDS011;5938;47.098;15.474;2022-10-30T06:07:53;12.20;;;7.63;;
11761;SDS011;5938;47.098;15.474;2022-10-30T06:11:58;8.97;;;8.07;;
11761;SDS011;5938;47.098;15.474;2022-10-30T06:16:02;7.90;;;7.10;;
11761;SDS011;5938;47.098;15.474;2022-10-30T06:20:06;9.30;;;6.87;;
11761;SDS011;5938;47.098;15.474;2022-10-30T06:24:10;9.23;;;7.87;;
11761;SDS011;5938;47.098;15.474;2022-10-30T06:28:15;11.30;;;8.00;;
11761;SDS011;5938;47.098;15.474;2022-10-30T06:32:18;9.37;;;8.47;;
11761;SDS011;5938;47.098;15.474;2022-10-30T06:36:22;10.27;;;7.97;;
11761;SDS011;5938;47.098;15.474;2022-10-30T06:40:26;8.30;;;7.40;;
11761;SDS011;5938;47.098;15.474;2022-10-30T06:44:32;16.40;;;7.30;;
11761;SDS011;5938;47.098;15.474;2022-10-30T06:48:36;11.00;;;7.50;;
11761;SDS011;5938;47.098;15.474;2022-10-30T06:52:40;14.03;;;8.80;;
11761;SDS011;5938;47.098;15.474;2022-10-30T06:56:48;10.70;;;8.83;;
11761;SDS011;5938;47.098;15.474;2022-10-30T07:00:53;13.13;;;8.97;;
11761;SDS011;5938;47.098;15.474;2022-10-30T07:04:57;9.57;;;8.20;;
11761;SDS011;5938;47.098;15.474;2022-10-30T07:09:01;9.20;;;7.73;;
11761;SDS011;5938;47.098;15.474;2022-10-30T07:13:04;8.27;;;7.37;;
11761;SDS011;5938;47.098;15.474;2022-10-30T07:17:09;12.90;;;8.80;;
11761;SDS011;5938;47.098;15.474;2022-10-30T07:21:13;13.50;;;8.57;;
11761;SDS011;5938;47.098;15.474;2022-10-30T07:25:18;8.90;;;8.00;;
11761;SDS011;5938;47.098;15.474;2022-10-30T07:29:22;11.60;;;9.00;;
11761;SDS011;5938;47.098;15.474;2022-10-30T07:33:27;11.60;;;8.33;;
11761;SDS011;5938;47.098;15.474;2022-10-30T07:37:30;15.50;;;8.80;;
11761;SDS011;5938;47.098;15.474;2022-10-30T07:41:34;11.23;;;8.27;;
11761;SDS011;5938;47.098;15.474;2022-10-30T07:45:38;12.60;;;8.70;;
11761;SDS011;5938;47.098;15.474;2022-10-30T07:49:43;9.73;;;8.20;;
11761;SDS011;5938;47.098;15.474;2022-10-30T07:53:46;16.60;;;10.33;;
11761;SDS011;5938;47.098;15.474;2022-10-30T07:57:50;28.13;;;16.80;;
11761;SDS011;5938;47.098;15.474;2022-10-30T08:01:53;23.13;;;17.40;;
11761;SDS011;5938;47.098;15.474;2022-10-30T08:05:58;23.73;;;14.77;;
11761;SDS011;5938;47.098;15.474;2022-10-30T08:10:02;14.60;;;12.70;;
11761;SDS011;5938;47.098;15.474;2022-10-30T08:14:06;19.80;;;12.03;;
11761;SDS011;5938;47.098;15.474;2022-10-30T08:18:09;19.03;;;11.10;;
11761;SDS011;5938;47.098;15.474;2022-10-30T08:22:14;19.63;;;11.10;;
11761;SDS011;5938;47.098;15.474;2022-10-30T08:26:18;18.57;;;13.00;;
11761;SDS011;5938;47.098;15.474;2022-10-30T08:30:21;16.60;;;10.00;;
11761;SDS011;5938;47.098;15.474;2022-10-30T08:34:26;14.17;;;12.10;;
11761;SDS011;5938;47.098;15.474;2022-10-30T08:38:33;14.93;;;11.77;;
11761;SDS011;5938;47.098;15.474;2022-10-30T08:42:36;13.47;;;10.50;;
11761;SDS011;5938;47.098;15.474;2022-10-30T08:46:40;13.30;;;8.87;;
11761;SDS011;5938;47.098;15.474;2022-10-30T08:50:43;13.43;;;8.97;;
11761;SDS011;5938;47.098;15.474;2022-10-30T08:54:48;22.17;;;11.13;;
11761;SDS011;5938;47.098;15.474;2022-10-30T08:58:52;15.63;;;10.20;;
11761;SDS011;5938;47.098;15.474;2022-10-30T09:02:55;13.80;;;9.23;;
11761;SDS011;5938;47.098;15.474;2022-10-30T09:06:59;9.20;;;8.20;;
11761;SDS011;5938;47.098;15.474;2022-10-30T09:11:06;10.50;;;7.73;;
11761;SDS011;5938;47.098;15.474;2022-10-30T09:15:15;11.47;;;7.80;;
11761;SDS011;5938;47.098;15.474;2022-10-30T09:19:19;10.00;;;6.30;;
11761;SDS011;5938;47.098;15.474;2022-10-30T09:23:22;9.57;;;5.97;;
11761;SDS011;5938;47.098;15.474;2022-10-30T09:27:27;8.80;;;6.03;;
11761;SDS011;5938;47.098;15.474;2022-10-30T09:31:30;7.20;;;5.90;;
11761;SDS011;5938;47.098;15.474;2022-10-30T09:35:34;6.50;;;5.20;;
11761;SDS011;5938;47.098;15.474;2022-10-30T09:39:38;9.37;;;6.23;;
11761;SDS011;5938;47.098;15.474;2022-10-30T09:43:45;8.13;;;6.13;;
11761;SDS011;5938;47.098;15.474;2022-10-30T09:48:03;10.20;;;5.33;;
11761;SDS011;5938;47.098;15.474;2022-10-30T09:52:21;7.10;;;6.50;;
11761;SDS011;5938;47.098;15.474;2022-10-30T09:56:30;6.83;;;5.83;;
11761;SDS011;5938;47.098;15.474;2022-10-30T10:00:41;6.93;;;6.00;;
11761;SDS011;5938;47.098;15.474;2022-10-30T10:04:49;9.17;;;6.60;;
11761;SDS011;5938;47.098;15.474;2022-10-30T10:08:57;7.30;;;5.77;;
11761;SDS011;5938;47.098;15.474;2022-10-30T10:13:06;7.70;;;5.43;;
11761;SDS011;5938;47.098;15.474;2022-10-30T10:17:19;7.37;;;5.60;;
11761;SDS011;5938;47.098;15.474;2022-10-30T10:21:28;8.03;;;5.80;;
11761;SDS011;5938;47.098;15.474;2022-10-30T10:25:33;6.83;;;5.80;;
11761;SDS011;5938;47.098;15.474;2022-10-30T10:29:41;10.27;;;5.87;;
11761;SDS011;5938;47.098;15.474;2022-10-30T10:33:59;12.93;;;5.63;;
11761;SDS011;5938;47.098;15.474;2022-10-30T10:38:13;9.13;;;5.40;;
11761;SDS011;5938;47.098;15.474;2022-10-30T10:42:28;7.23;;;5.33;;
11761;SDS011;5938;47.098;15.474;2022-10-30T10:46:47;9.37;;;5.77;;
11761;SDS011;5938;47.098;15.474;2022-10-30T10:51:09;7.70;;;5.30;;
11761;SDS011;5938;47.098;15.474;2022-10-30T10:55:17;9.37;;;6.43;;
11761;SDS011;5938;47.098;15.474;2022-10-30T10:59:25;9.73;;;5.63;;
11761;SDS011;5938;47.098;15.474;2022-10-30T11:03:36;5.73;;;5.20;;
11761;SDS011;5938;47.098;15.474;2022-10-30T11:07:49;8.77;;;5.67;;
11761;SDS011;5938;47.098;15.474;2022-10-30T11:11:53;10.30;;;5.23;;
11761;SDS011;5938;47.098;15.474;2022-10-30T11:15:58;15.33;;;6.30;;
11761;SDS011;5938;47.098;15.474;2022-10-30T11:20:11;6.70;;;4.93;;
11761;SDS011;5938;47.098;15.474;2022-10-30T11:24:27;11.10;;;4.80;;
11761;SDS011;5938;47.098;15.474;2022-10-30T11:28:37;19.20;;;6.40;;
11761;SDS011;5938;47.098;15.474;2022-10-30T11:32:43;8.30;;;5.07;;
11761;SDS011;5938;47.098;15.474;2022-10-30T11:36:47;7.80;;;5.43;;
11761;SDS011;5938;47.098;15.474;2022-10-30T11:40:53;6.50;;;5.60;;
11761;SDS011;5938;47.098;15.474;2022-10-30T11:49:27;7.90;;;6.40;;
11761;SDS011;5938;47.098;15.474;2022-10-30T11:53:35;5.87;;;4.57;;
11761;SDS011;5938;47.098;15.474;2022-10-30T11:57:43;7.23;;;5.27;;
11761;SDS011;5938;47.098;15.474;2022-10-30T12:06:25;7.63;;;4.87;;
11761;SDS011;5938;47.098;15.474;2022-10-30T12:10:29;8.30;;;5.43;;
11761;SDS011;5938;47.098;15.474;2022-10-30T12:14:34;6.43;;;5.73;;
11761;SDS011;5938;47.098;15.474;2022-10-30T12:18:38;7.70;;;5.20;;
11761;SDS011;5938;47.098;15.474;2022-10-30T12:22:42;6.73;;;4.40;;
11761;SDS011;5938;47.098;15.474;2022-10-30T12:26:46;5.47;;;4.90;;
11761;SDS011;5938;47.098;15.474;2022-10-30T12:30:56;7.10;;;5.07;;
11761;SDS011;5938;47.098;15.474;2022-10-30T12:35:03;6.90;;;4.30;;
11761;SDS011;5938;47.098;15.474;2022-10-30T12:39:17;7.90;;;5.37;;
11761;SDS011;5938;47.098;15.474;2022-10-30T12:43:26;7.87;;;5.00;;
11761;SDS011;5938;47.098;15.474;2022-10-30T12:47:36;8.63;;;4.77;;
11761;SDS011;5938;47.098;15.474;2022-10-30T12:51:46;8.60;;;4.80;;
11761;SDS011;5938;47.098;15.474;2022-10-30T12:55:57;9.00;;;5.17;;
11761;SDS011;5938;47.098;15.474;2022-10-30T13:00:05;6.23;;;4.60;;
11761;SDS011;5938;47.098;15.474;2022-10-30T13:04:16;9.63;;;5.00;;
11761;SDS011;5938;47.098;15.474;2022-10-30T13:08:25;8.23;;;4.43;;
11761;SDS011;5938;47.098;15.474;2022-10-30T13:12:35;8.87;;;4.37;;
11761;SDS011;5938;47.098;15.474;2022-10-30T13:16:42;6.77;;;4.60;;
11761;SDS011;5938;47.098;15.474;2022-10-30T13:21:00;6.77;;;5.20;;
11761;SDS011;5938;47.098;15.474;2022-10-30T13:25:14;10.07;;;5.83;;
11761;SDS011;5938;47.098;15.474;2022-10-30T13:29:27;11.33;;;5.50;;
11761;SDS011;5938;47.098;15.474;2022-10-30T13:33:36;9.57;;;5.43;;
11761;SDS011;5938;47.098;15.474;2022-10-30T13:37:46;8.07;;;4.90;;
11761;SDS011;5938;47.098;15.474;2022-10-30T13:41:58;11.60;;;4.80;;
11761;SDS011;5938;47.098;15.474;2022-10-30T13:46:19;13.10;;;5.53;;
11761;SDS011;5938;47.098;15.474;2022-10-30T13:50:47;7.97;;;5.20;;
11761;SDS011;5938;47.098;15.474;2022-10-30T13:55:12;12.10;;;5.57;;
11761;SDS011;5938;47.098;15.474;2022-10-30T13:59:32;11.60;;;5.37;;
11761;SDS011;5938;47.098;15.474;2022-10-30T14:03:50;7.63;;;4.80;;
11761;SDS011;5938;47.098;15.474;2022-10-30T14:08:00;12.90;;;5.80;;
11761;SDS011;5938;47.098;15.474;2022-10-30T14:17:03;10.60;;;5.17;;
11761;SDS011;5938;47.098;15.474;2022-10-30T14:25:44;9.40;;;5.30;;
11761;SDS011;5938;47.098;15.474;2022-10-30T14:30:17;9.43;;;4.57;;
11761;SDS011;5938;47.098;15.474;2022-10-30T14:38:51;8.83;;;5.33;;
11761;SDS011;5938;47.098;15.474;2022-10-30T14:42:55;9.27;;;5.97;;
11761;SDS011;5938;47.098;15.474;2022-10-30T14:47:19;9.77;;;5.63;;
11761;SDS011;5938;47.098;15.474;2022-10-30T14:51:41;9.47;;;5.57;;
11761;SDS011;5938;47.098;15.474;2022-10-30T14:55:56;11.40;;;6.57;;
11761;SDS011;5938;47.098;15.474;2022-10-30T15:05:16;9.43;;;6.30;;
11761;SDS011;5938;47.098;15.474;2022-10-30T15:09:40;7.60;;;5.73;;
11761;SDS011;5938;47.098;15.474;2022-10-30T15:13:54;10.33;;;5.67;;
11761;SDS011;5938;47.098;15.474;2022-10-30T15:18:02;10.03;;;5.77;;
11761;SDS011;5938;47.098;15.474;2022-10-30T15:22:14;11.20;;;6.33;;
11761;SDS011;5938;47.098;15.474;2022-10-30T15:26:22;6.93;;;6.20;;
11761;SDS011;5938;47.098;15.474;2022-10-30T15:30:30;10.40;;;6.50;;
11761;SDS011;5938;47.098;15.474;2022-10-30T15:34:36;8.83;;;5.50;;
11761;SDS011;5938;47.098;15.474;2022-10-30T15:38:42;10.63;;;6.20;;
11761;SDS011;5938;47.098;15.474;2022-10-30T15:42:46;9.97;;;6.93;;
11761;SDS011;5938;47.098;15.474;2022-10-30T15:46:52;12.30;;;6.97;;
11761;SDS011;5938;47.098;15.474;2022-10-30T15:50:58;13.97;;;7.17;;
11761;SDS011;5938;47.098;15.474;2022-10-30T15:55:05;8.57;;;6.30;;
11761;SDS011;5938;47.098;15.474;2022-10-30T15:59:14;12.40;;;6.83;;
11761;SDS011;5938;47.098;15.474;2022-10-30T16:03:20;8.47;;;7.33;;
11761;SDS011;5938;47.098;15.474;2022-10-30T16:07:24;8.67;;;5.20;;
11761;SDS011;5938;47.098;15.474;2022-10-30T16:11:30;9.13;;;6.13;;
11761;SDS011;5938;47.098;15.474;2022-10-30T16:15:37;14.27;;;7.27;;
11761;SDS011;5938;47.098;15.474;2022-10-30T16:19:43;9.13;;;6.97;;
11761;SDS011;5938;47.098;15.474;2022-10-30T16:23:49;14.23;;;6.93;;
11761;SDS011;5938;47.098;15.474;2022-10-30T16:27:56;11.87;;;6.77;;
11761;SDS011;5938;47.098;15.474;2022-10-30T16:32:00;12.30;;;5.70;;
11761;SDS011;5938;47.098;15.474;2022-10-30T16:36:05;11.37;;;7.27;;
11761;SDS011;5938;47.098;15.474;2022-10-30T16:40:13;9.00;;;6.47;;
11761;SDS011;5938;47.098;15.474;2022-10-30T16:44:24;10.50;;;6.40;;
11761;SDS011;5938;47.098;15.474;2022-10-30T16:48:32;10.13;;;6.40;;
11761;SDS011;5938;47.098;15.474;2022-10-30T16:52:37;10.83;;;7.30;;
11761;SDS011;5938;47.098;15.474;2022-10-30T16:56:42;11.27;;;8.10;;
11761;SDS011;5938;47.098;15.474;2022-10-30T17:00:54;20.60;;;8.00;;
11761;SDS011;5938;47.098;15.474;2022-10-30T17:05:07;10.53;;;7.50;;
11761;SDS011;5938;47.098;15.474;2022-10-30T17:09:18;10.90;;;7.33;;
11761;SDS011;5938;47.098;15.474;2022-10-30T17:13:31;9.07;;;7.50;;
11761;SDS011;5938;47.098;15.474;2022-10-30T17:17:38;8.53;;;6.80;;
11761;SDS011;5938;47.098;15.474;2022-10-30T17:21:43;11.30;;;7.20;;
11761;SDS011;5938;47.098;15.474;2022-10-30T17:25:47;14.13;;;7.57;;
11761;SDS011;5938;47.098;15.474;2022-10-30T17:29:51;9.03;;;6.80;;
11761;SDS011;5938;47.098;15.474;2022-10-30T17:34:10;11.40;;;7.37;;
11761;SDS011;5938;47.098;15.474;2022-10-30T17:38:22;11.23;;;8.00;;
11761;SDS011;5938;47.098;15.474;2022-10-30T17:42:27;9.87;;;6.97;;
11761;SDS011;5938;47.098;15.474;2022-10-30T17:46:32;20.83;;;8.33;;
11761;SDS011;5938;47.098;15.474;2022-10-30T17:50:38;10.63;;;7.63;;
11761;SDS011;5938;47.098;15.474;2022-10-30T17:54:43;12.37;;;7.17;;
11761;SDS011;5938;47.098;15.474;2022-10-30T17:58:56;11.93;;;7.47;;
11761;SDS011;5938;47.098;15.474;2022-10-30T18:03:01;12.43;;;8.20;;
11761;SDS011;5938;47.098;15.474;2022-10-30T18:07:07;10.17;;;7.10;;
11761;SDS011;5938;47.098;15.474;2022-10-30T18:11:11;10.50;;;7.90;;
11761;SDS011;5938;47.098;15.474;2022-10-30T18:15:25;11.73;;;7.50;;
11761;SDS011;5938;47.098;15.474;2022-10-30T18:19:31;11.00;;;8.00;;
11761;SDS011;5938;47.098;15.474;2022-10-30T18:23:37;10.13;;;8.10;;
11761;SDS011;5938;47.098;15.474;2022-10-30T18:27:57;11.17;;;7.83;;
11761;SDS011;5938;47.098;15.474;2022-10-30T18:32:01;9.30;;;7.90;;
11761;SDS011;5938;47.098;15.474;2022-10-30T18:36:11;10.50;;;8.00;;
11761;SDS011;5938;47.098;15.474;2022-10-30T18:40:18;9.70;;;7.87;;
11761;SDS011;5938;47.098;15.474;2022-10-30T18:44:23;7.70;;;7.00;;
11761;SDS011;5938;47.098;15.474;2022-10-30T18:48:28;13.20;;;7.87;;
11761;SDS011;5938;47.098;15.474;2022-10-30T18:52:33;11.57;;;8.37;;
11761;SDS011;5938;47.098;15.474;2022-10-30T18:56:39;12.30;;;8.60;;
11761;SDS011;5938;47.098;15.474;2022-10-30T19:00:46;13.90;;;8.37;;
11761;SDS011;5938;47.098;15.474;2022-10-30T19:05:15;10.57;;;9.40;;
11761;SDS011;5938;47.098;15.474;2022-10-30T19:09:35;17.00;;;8.40;;
11761;SDS011;5938;47.098;15.474;2022-10-30T19:13:43;15.77;;;9.67;;
11761;SDS011;5938;47.098;15.474;2022-10-30T19:17:47;13.40;;;8.47;;
11761;SDS011;5938;47.098;15.474;2022-10-30T19:21:53;11.50;;;8.50;;
11761;SDS011;5938;47.098;15.474;2022-10-30T19:25:59;12.53;;;8.20;;
11761;SDS011;5938;47.098;15.474;2022-10-30T19:30:08;15.73;;;9.87;;
11761;SDS011;5938;47.098;15.474;2022-10-30T19:34:13;13.00;;;8.87;;
11761;SDS011;5938;47.098;15.474;2022-10-30T19:38:21;16.13;;;9.53;;
11761;SDS011;5938;47.098;15.474;2022-10-30T19:42:28;15.70;;;9.30;;
11761;SDS011;5938;47.098;15.474;2022-10-30T19:46:35;15.27;;;9.27;;
11761;SDS011;5938;47.098;15.474;2022-10-30T19:50:41;9.87;;;8.50;;
11761;SDS011;5938;47.098;15.474;2022-10-30T19:54:46;9.53;;;8.63;;
11761;SDS011;5938;47.098;15.474;2022-10-30T19:58:50;10.40;;;8.70;;
11761;SDS011;5938;47.098;15.474;2022-10-30T20:02:57;13.60;;;10.00;;
11761;SDS011;5938;47.098;15.474;2022-10-30T20:07:03;13.07;;;10.50;;
11761;SDS011;5938;47.098;15.474;2022-10-30T20:11:08;12.60;;;9.17;;
11761;SDS011;5938;47.098;15.474;2022-10-30T20:15:27;9.70;;;8.70;;
11761;SDS011;5938;47.098;15.474;2022-10-30T20:19:34;12.27;;;8.93;;
11761;SDS011;5938;47.098;15.474;2022-10-30T20:23:45;10.70;;;8.47;;
11761;SDS011;5938;47.098;15.474;2022-10-30T20:27:50;15.40;;;8.63;;
11761;SDS011;5938;47.098;15.474;2022-10-30T20:32:07;15.87;;;9.00;;
11761;SDS011;5938;47.098;15.474;2022-10-30T20:36:14;10.00;;;8.53;;
11761;SDS011;5938;47.098;15.474;2022-10-30T20:40:18;17.60;;;9.00;;
11761;SDS011;5938;47.098;15.474;2022-10-30T20:44:23;13.43;;;10.00;;
11761;SDS011;5938;47.098;15.474;2022-10-30T20:48:27;16.70;;;9.30;;
11761;SDS011;5938;47.098;15.474;2022-10-30T20:52:33;13.60;;;10.37;;
11761;SDS011;5938;47.098;15.474;2022-10-30T20:56:37;8.93;;;8.03;;
11761;SDS011;5938;47.098;15.474;2022-10-30T21:00:42;11.47;;;8.63;;
11761;SDS011;5938;47.098;15.474;2022-10-30T21:04:46;11.00;;;7.97;;
11761;SDS011;5938;47.098;15.474;2022-10-30T21:08:52;15.80;;;8.70;;
11761;SDS011;5938;47.098;15.474;2022-10-30T21:12:59;12.17;;;8.13;;
11761;SDS011;5938;47.098;15.474;2022-10-30T21:17:09;11.87;;;8.03;;
11761;SDS011;5938;47.098;15.474;2022-10-30T21:21:14;12.67;;;7.90;;
11761;SDS011;5938;47.098;15.474;2022-10-30T21:25:27;13.97;;;8.53;;
11761;SDS011;5938;47.098;15.474;2022-10-30T21:29:33;9.53;;;8.10;;
11761;SDS011;5938;47.098;15.474;2022-10-30T21:33:37;12.70;;;7.43;;
11761;SDS011;5938;47.098;15.474;2022-10-30T21:37:41;12.33;;;8.63;;
11761;SDS011;5938;47.098;15.474;2022-10-30T21:41:46;16.47;;;9.33;;
11761;SDS011;5938;47.098;15.474;2022-10-30T21:45:50;14.30;;;8.50;;
11761;SDS011;5938;47.098;15.474;2022-10-30T21:49:53;10.47;;;7.57;;
11761;SDS011;5938;47.098;15.474;2022-10-30T21:53:58;14.00;;;8.17;;
11761;SDS011;5938;47.098;15.474;2022-10-30T21:58:04;14.20;;;8.67;;
11761;SDS011;5938;47.098;15.474;2022-10-30T22:02:09;12.33;;;8.60;;
11761;SDS011;5938;47.098;15.474;2022-10-30T22:06:16;11.40;;;7.70;;
11761;SDS011;5938;47.098;15.474;2022-10-30T22:10:21;10.60;;;7.90;;
11761;SDS011;5938;47.098;15.474;2022-10-30T22:14:27;14.10;;;8.13;;
11761;SDS011;5938;47.098;15.474;2022-10-30T22:18:31;10.63;;;8.00;;
11761;SDS011;5938;47.098;15.474;2022-10-30T22:22:35;13.80;;;8.93;;
11761;SDS011;5938;47.098;15.474;2022-10-30T22:26:38;12.30;;;8.33;;
11761;SDS011;5938;47.098;15.474;2022-10-30T22:30:43;10.27;;;9.20;;
11761;SDS011;5938;47.098;15.474;2022-10-30T22:34:47;8.97;;;7.53;;
11761;SDS011;5938;47.098;15.474;2022-10-30T22:38:54;10.50;;;7.40;;
11761;SDS011;5938;47.098;15.474;2022-10-30T22:43:00;9.93;;;7.50;;
11761;SDS011;5938;47.098;15.474;2022-10-30T22:47:05;13.30;;;8.53;;
11761;SDS011;5938;47.098;15.474;2022-10-30T22:51:09;14.33;;;8.40;;
11761;SDS011;5938;47.098;15.474;2022-10-30T22:55:16;12.57;;;8.10;;
11761;SDS011;5938;47.098;15.474;2022-10-30T23:04:13;8.43;;;7.50;;
11761;SDS011;5938;47.098;15.474;2022-10-30T23:08:17;14.03;;;8.80;;
11761;SDS011;5938;47.098;15.474;2022-10-30T23:12:21;15.03;;;8.27;;
11761;SDS011;5938;47.098;15.474;2022-10-30T23:16:24;10.10;;;8.00;;
11761;SDS011;5938;47.098;15.474;2022-10-30T23:20:30;10.10;;;7.43;;
11761;SDS011;5938;47.098;15.474;2022-10-30T23:24:34;11.53;;;8.50;;
11761;SDS011;5938;47.098;15.474;2022-10-30T23:28:37;8.93;;;7.47;;
11761;SDS011;5938;47.098;15.474;2022-10-30T23:32:42;12.07;;;7.13;;
11761;SDS011;5938;47.098;15.474;2022-10-30T23:36:50;13.40;;;9.00;;
11761;SDS011;5938;47.098;15.474;2022-10-30T23:41:01;10.37;;;7.30;;
11761;SDS011;5938;47.098;15.474;2022-10-30T23:45:04;10.70;;;7.70;;
11761;SDS011;5938;47.098;15.474;2022-10-30T23:49:08;16.97;;;7.10;;
11761;SDS011;5938;47.098;15.474;2022-10-30T23:53:16;13.33;;;8.63;;
11761;SDS011;5938;47.098;15.474;2022-10-30T23:57:27;9.33;;;7.57;;
